sensor_id;sensor_type;location;lat;lon;timestamp;P1;durP1;ratioP1;P2;durP2;ratioP2
84523;SDS011;74765;44.538;18.668;2023-12-28T00:00:28;207.18;;;80.65;;
84523;SDS011;74765;44.538;18.668;2023-12-28T00:02:53;159.55;;;71.05;;
84523;SDS011;74765;44.538;18.668;2023-12-28T00:05:19;176.98;;;72.82;;
84523;SDS011;74765;44.538;18.668;2023-12-28T00:07:45;178.35;;;73.38;;
84523;SDS011;74765;44.538;18.668;2023-12-28T00:10:10;189.35;;;78.65;;
84523;SDS011;74765;44.538;18.668;2023-12-28T00:12:36;168.43;;;74.20;;
84523;SDS011;74765;44.538;18.668;2023-12-28T00:15:02;180.88;;;75.00;;
84523;SDS011;74765;44.538;18.668;2023-12-28T00:17:28;182.90;;;77.65;;
84523;SDS011;74765;44.538;18.668;2023-12-28T00:19:54;182.18;;;75.20;;
84523;SDS011;74765;44.538;18.668;2023-12-28T00:22:20;214.07;;;85.47;;
84523;SDS011;74765;44.538;18.668;2023-12-28T00:24:45;218.48;;;89.18;;
84523;SDS011;74765;44.538;18.668;2023-12-28T00:27:11;228.75;;;95.90;;
84523;SDS011;74765;44.538;18.668;2023-12-28T00:29:37;226.35;;;96.55;;
84523;SDS011;74765;44.538;18.668;2023-12-28T00:32:06;226.40;;;94.03;;
84523;SDS011;74765;44.538;18.668;2023-12-28T00:34:32;199.40;;;85.43;;
84523;SDS011;74765;44.538;18.668;2023-12-28T00:36:58;181.05;;;79.10;;
84523;SDS011;74765;44.538;18.668;2023-12-28T00:39:24;198.63;;;80.05;;
84523;SDS011;74765;44.538;18.668;2023-12-28T00:41:50;197.45;;;82.05;;
84523;SDS011;74765;44.538;18.668;2023-12-28T00:44:15;180.00;;;77.30;;
84523;SDS011;74765;44.538;18.668;2023-12-28T00:46:42;192.48;;;78.95;;
84523;SDS011;74765;44.538;18.668;2023-12-28T00:49:07;176.00;;;79.13;;
84523;SDS011;74765;44.538;18.668;2023-12-28T00:51:33;195.25;;;81.22;;
84523;SDS011;74765;44.538;18.668;2023-12-28T00:53:59;192.23;;;85.38;;
84523;SDS011;74765;44.538;18.668;2023-12-28T00:56:25;202.65;;;89.47;;
84523;SDS011;74765;44.538;18.668;2023-12-28T00:58:51;208.43;;;87.47;;
84523;SDS011;74765;44.538;18.668;2023-12-28T01:01:17;224.57;;;91.03;;
84523;SDS011;74765;44.538;18.668;2023-12-28T01:03:43;223.43;;;91.32;;
84523;SDS011;74765;44.538;18.668;2023-12-28T01:06:09;222.90;;;93.47;;
84523;SDS011;74765;44.538;18.668;2023-12-28T01:08:35;199.35;;;80.50;;
84523;SDS011;74765;44.538;18.668;2023-12-28T01:11:01;189.88;;;82.22;;
84523;SDS011;74765;44.538;18.668;2023-12-28T01:13:28;169.32;;;71.18;;
84523;SDS011;74765;44.538;18.668;2023-12-28T01:15:54;172.32;;;71.95;;
84523;SDS011;74765;44.538;18.668;2023-12-28T01:18:20;150.02;;;64.57;;
84523;SDS011;74765;44.538;18.668;2023-12-28T01:20:46;172.07;;;73.85;;
84523;SDS011;74765;44.538;18.668;2023-12-28T01:23:12;153.65;;;65.88;;
84523;SDS011;74765;44.538;18.668;2023-12-28T01:25:37;149.23;;;63.28;;
84523;SDS011;74765;44.538;18.668;2023-12-28T01:28:03;174.00;;;69.45;;
84523;SDS011;74765;44.538;18.668;2023-12-28T01:30:30;144.57;;;63.00;;
84523;SDS011;74765;44.538;18.668;2023-12-28T01:32:56;146.05;;;61.05;;
84523;SDS011;74765;44.538;18.668;2023-12-28T01:35:21;138.32;;;63.35;;
84523;SDS011;74765;44.538;18.668;2023-12-28T01:37:47;153.95;;;67.30;;
84523;SDS011;74765;44.538;18.668;2023-12-28T01:40:14;146.35;;;63.50;;
84523;SDS011;74765;44.538;18.668;2023-12-28T01:42:41;164.73;;;72.18;;
84523;SDS011;74765;44.538;18.668;2023-12-28T01:45:08;158.75;;;70.43;;
84523;SDS011;74765;44.538;18.668;2023-12-28T01:47:33;166.60;;;67.28;;
84523;SDS011;74765;44.538;18.668;2023-12-28T01:50:00;171.38;;;70.85;;
84523;SDS011;74765;44.538;18.668;2023-12-28T01:52:26;160.05;;;69.10;;
84523;SDS011;74765;44.538;18.668;2023-12-28T01:54:52;163.30;;;72.75;;
84523;SDS011;74765;44.538;18.668;2023-12-28T01:57:18;172.07;;;73.43;;
84523;SDS011;74765;44.538;18.668;2023-12-28T01:59:44;165.63;;;73.82;;
84523;SDS011;74765;44.538;18.668;2023-12-28T02:02:10;164.50;;;70.28;;
84523;SDS011;74765;44.538;18.668;2023-12-28T02:04:36;177.73;;;75.78;;
84523;SDS011;74765;44.538;18.668;2023-12-28T02:07:02;186.43;;;79.82;;
84523;SDS011;74765;44.538;18.668;2023-12-28T02:09:28;184.57;;;78.45;;
84523;SDS011;74765;44.538;18.668;2023-12-28T02:11:54;180.18;;;77.20;;
84523;SDS011;74765;44.538;18.668;2023-12-28T02:14:20;164.10;;;72.47;;
84523;SDS011;74765;44.538;18.668;2023-12-28T02:16:50;166.95;;;75.53;;
84523;SDS011;74765;44.538;18.668;2023-12-28T02:21:56;170.23;;;72.82;;
84523;SDS011;74765;44.538;18.668;2023-12-28T02:24:24;189.77;;;78.05;;
84523;SDS011;74765;44.538;18.668;2023-12-28T02:26:50;169.15;;;73.85;;
84523;SDS011;74765;44.538;18.668;2023-12-28T02:29:15;176.23;;;74.28;;
84523;SDS011;74765;44.538;18.668;2023-12-28T02:31:50;180.82;;;77.55;;
84523;SDS011;74765;44.538;18.668;2023-12-28T02:34:27;180.27;;;79.47;;
84523;SDS011;74765;44.538;18.668;2023-12-28T02:36:59;170.55;;;75.68;;
84523;SDS011;74765;44.538;18.668;2023-12-28T02:39:27;171.38;;;75.53;;
84523;SDS011;74765;44.538;18.668;2023-12-28T02:41:55;174.27;;;77.60;;
84523;SDS011;74765;44.538;18.668;2023-12-28T02:44:21;155.38;;;69.85;;
84523;SDS011;74765;44.538;18.668;2023-12-28T02:46:47;163.15;;;69.88;;
84523;SDS011;74765;44.538;18.668;2023-12-28T02:49:12;163.95;;;73.22;;
84523;SDS011;74765;44.538;18.668;2023-12-28T02:51:40;163.13;;;74.72;;
84523;SDS011;74765;44.538;18.668;2023-12-28T02:54:09;163.63;;;72.80;;
84523;SDS011;74765;44.538;18.668;2023-12-28T02:56:34;146.82;;;62.38;;
84523;SDS011;74765;44.538;18.668;2023-12-28T02:59:00;169.43;;;73.35;;
84523;SDS011;74765;44.538;18.668;2023-12-28T03:01:26;167.32;;;74.25;;
84523;SDS011;74765;44.538;18.668;2023-12-28T03:03:52;177.90;;;74.63;;
84523;SDS011;74765;44.538;18.668;2023-12-28T03:06:18;142.00;;;63.55;;
84523;SDS011;74765;44.538;18.668;2023-12-28T03:08:44;163.07;;;69.93;;
84523;SDS011;74765;44.538;18.668;2023-12-28T03:11:11;165.73;;;71.40;;
84523;SDS011;74765;44.538;18.668;2023-12-28T03:13:37;152.88;;;70.70;;
84523;SDS011;74765;44.538;18.668;2023-12-28T03:16:03;133.90;;;60.83;;
84523;SDS011;74765;44.538;18.668;2023-12-28T03:18:29;134.73;;;63.63;;
84523;SDS011;74765;44.538;18.668;2023-12-28T03:20:55;141.82;;;64.68;;
84523;SDS011;74765;44.538;18.668;2023-12-28T03:23:20;160.73;;;69.70;;
84523;SDS011;74765;44.538;18.668;2023-12-28T03:25:46;135.48;;;60.38;;
84523;SDS011;74765;44.538;18.668;2023-12-28T03:28:12;142.65;;;63.15;;
84523;SDS011;74765;44.538;18.668;2023-12-28T03:30:37;138.68;;;61.90;;
84523;SDS011;74765;44.538;18.668;2023-12-28T03:33:05;143.63;;;68.57;;
84523;SDS011;74765;44.538;18.668;2023-12-28T03:35:31;165.32;;;76.38;;
84523;SDS011;74765;44.538;18.668;2023-12-28T03:37:56;160.35;;;72.20;;
84523;SDS011;74765;44.538;18.668;2023-12-28T03:40:22;165.90;;;71.28;;
84523;SDS011;74765;44.538;18.668;2023-12-28T03:42:50;154.32;;;64.97;;
84523;SDS011;74765;44.538;18.668;2023-12-28T03:45:15;148.43;;;64.97;;
84523;SDS011;74765;44.538;18.668;2023-12-28T03:47:41;141.65;;;57.75;;
84523;SDS011;74765;44.538;18.668;2023-12-28T03:50:08;142.60;;;59.00;;
84523;SDS011;74765;44.538;18.668;2023-12-28T03:52:34;143.00;;;64.40;;
84523;SDS011;74765;44.538;18.668;2023-12-28T03:55:00;146.85;;;64.15;;
84523;SDS011;74765;44.538;18.668;2023-12-28T03:57:25;114.28;;;49.00;;
84523;SDS011;74765;44.538;18.668;2023-12-28T03:59:52;124.85;;;51.22;;
84523;SDS011;74765;44.538;18.668;2023-12-28T04:02:19;122.47;;;50.83;;
84523;SDS011;74765;44.538;18.668;2023-12-28T04:04:45;119.85;;;50.53;;
84523;SDS011;74765;44.538;18.668;2023-12-28T04:07:10;126.00;;;51.00;;
84523;SDS011;74765;44.538;18.668;2023-12-28T04:09:36;110.72;;;47.03;;
84523;SDS011;74765;44.538;18.668;2023-12-28T04:12:02;100.00;;;42.83;;
84523;SDS011;74765;44.538;18.668;2023-12-28T04:14:28;104.65;;;46.70;;
84523;SDS011;74765;44.538;18.668;2023-12-28T04:16:54;107.57;;;46.47;;
84523;SDS011;74765;44.538;18.668;2023-12-28T04:19:20;117.07;;;51.85;;
84523;SDS011;74765;44.538;18.668;2023-12-28T04:21:46;106.65;;;46.60;;
84523;SDS011;74765;44.538;18.668;2023-12-28T04:24:11;102.03;;;45.88;;
84523;SDS011;74765;44.538;18.668;2023-12-28T04:26:38;104.68;;;48.67;;
84523;SDS011;74765;44.538;18.668;2023-12-28T04:29:04;98.97;;;46.33;;
84523;SDS011;74765;44.538;18.668;2023-12-28T04:31:30;106.28;;;46.72;;
84523;SDS011;74765;44.538;18.668;2023-12-28T04:33:56;100.47;;;47.60;;
84523;SDS011;74765;44.538;18.668;2023-12-28T04:36:22;128.13;;;55.55;;
84523;SDS011;74765;44.538;18.668;2023-12-28T04:38:48;130.80;;;54.50;;
84523;SDS011;74765;44.538;18.668;2023-12-28T04:41:13;116.97;;;51.92;;
84523;SDS011;74765;44.538;18.668;2023-12-28T04:43:39;131.38;;;56.00;;
84523;SDS011;74765;44.538;18.668;2023-12-28T04:46:05;145.82;;;58.75;;
84523;SDS011;74765;44.538;18.668;2023-12-28T04:48:31;139.50;;;58.88;;
84523;SDS011;74765;44.538;18.668;2023-12-28T04:50:57;134.23;;;58.38;;
84523;SDS011;74765;44.538;18.668;2023-12-28T04:53:24;150.13;;;62.58;;
84523;SDS011;74765;44.538;18.668;2023-12-28T04:55:49;160.50;;;66.85;;
84523;SDS011;74765;44.538;18.668;2023-12-28T04:58:15;142.32;;;59.42;;
84523;SDS011;74765;44.538;18.668;2023-12-28T05:00:41;141.07;;;61.72;;
84523;SDS011;74765;44.538;18.668;2023-12-28T05:03:06;141.27;;;58.63;;
84523;SDS011;74765;44.538;18.668;2023-12-28T05:05:32;122.40;;;52.53;;
84523;SDS011;74765;44.538;18.668;2023-12-28T05:07:59;136.07;;;57.40;;
84523;SDS011;74765;44.538;18.668;2023-12-28T05:10:24;139.98;;;58.15;;
84523;SDS011;74765;44.538;18.668;2023-12-28T05:12:50;118.85;;;55.47;;
84523;SDS011;74765;44.538;18.668;2023-12-28T05:15:16;136.40;;;58.17;;
84523;SDS011;74765;44.538;18.668;2023-12-28T05:17:43;150.07;;;60.83;;
84523;SDS011;74765;44.538;18.668;2023-12-28T05:20:09;149.77;;;62.78;;
84523;SDS011;74765;44.538;18.668;2023-12-28T05:22:35;134.98;;;59.53;;
84523;SDS011;74765;44.538;18.668;2023-12-28T05:25:01;122.55;;;55.03;;
84523;SDS011;74765;44.538;18.668;2023-12-28T05:27:26;118.68;;;52.83;;
84523;SDS011;74765;44.538;18.668;2023-12-28T05:29:52;124.38;;;56.70;;
84523;SDS011;74765;44.538;18.668;2023-12-28T05:32:18;139.95;;;58.97;;
84523;SDS011;74765;44.538;18.668;2023-12-28T05:34:44;141.85;;;62.05;;
84523;SDS011;74765;44.538;18.668;2023-12-28T05:37:10;123.30;;;55.88;;
84523;SDS011;74765;44.538;18.668;2023-12-28T05:39:36;118.75;;;53.00;;
84523;SDS011;74765;44.538;18.668;2023-12-28T05:42:02;128.10;;;54.33;;
84523;SDS011;74765;44.538;18.668;2023-12-28T05:44:28;120.75;;;53.38;;
84523;SDS011;74765;44.538;18.668;2023-12-28T05:46:53;118.28;;;51.50;;
84523;SDS011;74765;44.538;18.668;2023-12-28T05:49:19;117.68;;;51.80;;
84523;SDS011;74765;44.538;18.668;2023-12-28T05:51:45;113.88;;;50.08;;
84523;SDS011;74765;44.538;18.668;2023-12-28T05:54:11;119.85;;;49.33;;
84523;SDS011;74765;44.538;18.668;2023-12-28T05:56:36;89.65;;;40.05;;
84523;SDS011;74765;44.538;18.668;2023-12-28T05:59:02;105.22;;;43.75;;
84523;SDS011;74765;44.538;18.668;2023-12-28T06:01:28;109.75;;;43.25;;
84523;SDS011;74765;44.538;18.668;2023-12-28T06:03:53;129.23;;;46.13;;
84523;SDS011;74765;44.538;18.668;2023-12-28T06:06:19;129.48;;;51.53;;
84523;SDS011;74765;44.538;18.668;2023-12-28T06:08:45;167.20;;;62.40;;
84523;SDS011;74765;44.538;18.668;2023-12-28T06:11:11;162.30;;;57.78;;
84523;SDS011;74765;44.538;18.668;2023-12-28T06:13:37;166.85;;;60.70;;
84523;SDS011;74765;44.538;18.668;2023-12-28T06:16:03;161.88;;;60.45;;
84523;SDS011;74765;44.538;18.668;2023-12-28T06:18:29;212.32;;;68.03;;
84523;SDS011;74765;44.538;18.668;2023-12-28T06:20:55;150.48;;;57.22;;
84523;SDS011;74765;44.538;18.668;2023-12-28T06:23:20;198.10;;;66.10;;
84523;SDS011;74765;44.538;18.668;2023-12-28T06:25:46;166.45;;;62.38;;
84523;SDS011;74765;44.538;18.668;2023-12-28T06:28:12;168.48;;;63.63;;
84523;SDS011;74765;44.538;18.668;2023-12-28T06:30:38;148.88;;;58.22;;
84523;SDS011;74765;44.538;18.668;2023-12-28T06:33:05;115.40;;;49.42;;
84523;SDS011;74765;44.538;18.668;2023-12-28T06:35:31;128.70;;;54.33;;
84523;SDS011;74765;44.538;18.668;2023-12-28T06:37:56;160.88;;;61.60;;
84523;SDS011;74765;44.538;18.668;2023-12-28T06:40:22;136.70;;;57.35;;
84523;SDS011;74765;44.538;18.668;2023-12-28T06:42:52;157.50;;;62.05;;
84523;SDS011;74765;44.538;18.668;2023-12-28T06:45:17;188.27;;;78.75;;
84523;SDS011;74765;44.538;18.668;2023-12-28T06:47:43;143.52;;;62.00;;
84523;SDS011;74765;44.538;18.668;2023-12-28T06:50:09;150.27;;;63.60;;
84523;SDS011;74765;44.538;18.668;2023-12-28T06:52:35;148.23;;;60.25;;
84523;SDS011;74765;44.538;18.668;2023-12-28T06:55:01;159.45;;;64.43;;
84523;SDS011;74765;44.538;18.668;2023-12-28T06:57:27;152.07;;;62.05;;
84523;SDS011;74765;44.538;18.668;2023-12-28T06:59:53;154.13;;;64.30;;
84523;SDS011;74765;44.538;18.668;2023-12-28T07:02:19;152.27;;;69.25;;
84523;SDS011;74765;44.538;18.668;2023-12-28T07:04:45;146.48;;;59.88;;
84523;SDS011;74765;44.538;18.668;2023-12-28T07:07:11;167.30;;;71.50;;
84523;SDS011;74765;44.538;18.668;2023-12-28T07:09:36;159.77;;;68.63;;
84523;SDS011;74765;44.538;18.668;2023-12-28T07:12:02;160.18;;;72.57;;
84523;SDS011;74765;44.538;18.668;2023-12-28T07:14:29;161.05;;;69.90;;
84523;SDS011;74765;44.538;18.668;2023-12-28T07:16:54;294.65;;;130.85;;
84523;SDS011;74765;44.538;18.668;2023-12-28T07:19:20;361.45;;;166.45;;
84523;SDS011;74765;44.538;18.668;2023-12-28T07:21:46;330.42;;;147.88;;
84523;SDS011;74765;44.538;18.668;2023-12-28T07:24:12;243.93;;;106.38;;
84523;SDS011;74765;44.538;18.668;2023-12-28T07:26:38;226.82;;;97.05;;
84523;SDS011;74765;44.538;18.668;2023-12-28T07:29:03;203.40;;;88.65;;
84523;SDS011;74765;44.538;18.668;2023-12-28T07:31:29;222.75;;;87.00;;
84523;SDS011;74765;44.538;18.668;2023-12-28T07:33:56;214.55;;;87.85;;
84523;SDS011;74765;44.538;18.668;2023-12-28T07:36:22;210.48;;;83.55;;
84523;SDS011;74765;44.538;18.668;2023-12-28T07:38:48;206.00;;;84.45;;
84523;SDS011;74765;44.538;18.668;2023-12-28T07:41:14;214.73;;;86.07;;
84523;SDS011;74765;44.538;18.668;2023-12-28T07:43:41;225.98;;;87.70;;
84523;SDS011;74765;44.538;18.668;2023-12-28T07:46:07;236.98;;;93.32;;
84523;SDS011;74765;44.538;18.668;2023-12-28T07:48:32;271.38;;;96.72;;
84523;SDS011;74765;44.538;18.668;2023-12-28T07:50:58;214.10;;;84.65;;
84523;SDS011;74765;44.538;18.668;2023-12-28T07:53:28;234.82;;;87.10;;
84523;SDS011;74765;44.538;18.668;2023-12-28T07:55:54;238.52;;;95.30;;
84523;SDS011;74765;44.538;18.668;2023-12-28T07:58:21;268.17;;;100.03;;
84523;SDS011;74765;44.538;18.668;2023-12-28T08:00:47;255.93;;;98.20;;
84523;SDS011;74765;44.538;18.668;2023-12-28T08:03:14;279.80;;;98.45;;
84523;SDS011;74765;44.538;18.668;2023-12-28T08:05:43;265.50;;;102.78;;
84523;SDS011;74765;44.538;18.668;2023-12-28T08:08:09;271.58;;;109.40;;
84523;SDS011;74765;44.538;18.668;2023-12-28T08:10:34;268.92;;;103.80;;
84523;SDS011;74765;44.538;18.668;2023-12-28T08:13:00;294.02;;;114.00;;
84523;SDS011;74765;44.538;18.668;2023-12-28T08:15:26;280.45;;;115.07;;
84523;SDS011;74765;44.538;18.668;2023-12-28T08:17:52;309.10;;;125.10;;
84523;SDS011;74765;44.538;18.668;2023-12-28T08:20:18;307.85;;;126.03;;
84523;SDS011;74765;44.538;18.668;2023-12-28T08:22:44;296.17;;;119.25;;
84523;SDS011;74765;44.538;18.668;2023-12-28T08:25:10;282.45;;;114.80;;
84523;SDS011;74765;44.538;18.668;2023-12-28T08:27:36;263.98;;;115.82;;
84523;SDS011;74765;44.538;18.668;2023-12-28T08:30:01;284.35;;;120.35;;
84523;SDS011;74765;44.538;18.668;2023-12-28T08:32:28;286.77;;;119.53;;
84523;SDS011;74765;44.538;18.668;2023-12-28T08:34:54;281.67;;;123.38;;
84523;SDS011;74765;44.538;18.668;2023-12-28T08:37:20;333.48;;;145.55;;
84523;SDS011;74765;44.538;18.668;2023-12-28T08:39:46;332.77;;;144.88;;
84523;SDS011;74765;44.538;18.668;2023-12-28T08:42:12;378.30;;;168.65;;
84523;SDS011;74765;44.538;18.668;2023-12-28T08:44:37;335.40;;;144.40;;
84523;SDS011;74765;44.538;18.668;2023-12-28T08:47:03;373.52;;;152.80;;
84523;SDS011;74765;44.538;18.668;2023-12-28T08:49:29;291.95;;;126.78;;
84523;SDS011;74765;44.538;18.668;2023-12-28T08:51:55;336.63;;;139.27;;
84523;SDS011;74765;44.538;18.668;2023-12-28T08:54:21;395.98;;;173.98;;
84523;SDS011;74765;44.538;18.668;2023-12-28T08:56:47;395.17;;;180.35;;
84523;SDS011;74765;44.538;18.668;2023-12-28T08:59:13;366.05;;;171.07;;
84523;SDS011;74765;44.538;18.668;2023-12-28T09:01:39;371.33;;;169.45;;
84523;SDS011;74765;44.538;18.668;2023-12-28T09:04:05;311.40;;;138.38;;
84523;SDS011;74765;44.538;18.668;2023-12-28T09:06:31;284.60;;;125.88;;
84523;SDS011;74765;44.538;18.668;2023-12-28T09:08:57;312.75;;;129.02;;
84523;SDS011;74765;44.538;18.668;2023-12-28T09:11:23;289.80;;;125.15;;
84523;SDS011;74765;44.538;18.668;2023-12-28T09:13:49;289.00;;;125.88;;
84523;SDS011;74765;44.538;18.668;2023-12-28T09:16:15;292.27;;;129.07;;
84523;SDS011;74765;44.538;18.668;2023-12-28T09:18:41;339.75;;;140.68;;
84523;SDS011;74765;44.538;18.668;2023-12-28T09:21:13;337.77;;;136.90;;
84523;SDS011;74765;44.538;18.668;2023-12-28T09:23:38;276.70;;;117.72;;
84523;SDS011;74765;44.538;18.668;2023-12-28T09:26:12;301.80;;;129.48;;
84523;SDS011;74765;44.538;18.668;2023-12-28T09:28:38;302.15;;;126.57;;
84523;SDS011;74765;44.538;18.668;2023-12-28T09:31:03;409.95;;;144.20;;
84523;SDS011;74765;44.538;18.668;2023-12-28T09:33:29;287.55;;;127.72;;
84523;SDS011;74765;44.538;18.668;2023-12-28T09:35:58;280.92;;;118.63;;
84523;SDS011;74765;44.538;18.668;2023-12-28T09:38:25;339.05;;;144.13;;
84523;SDS011;74765;44.538;18.668;2023-12-28T09:40:52;310.45;;;138.55;;
84523;SDS011;74765;44.538;18.668;2023-12-28T09:43:23;273.38;;;122.93;;
84523;SDS011;74765;44.538;18.668;2023-12-28T09:45:53;244.93;;;110.85;;
84523;SDS011;74765;44.538;18.668;2023-12-28T09:48:22;240.32;;;109.45;;
84523;SDS011;74765;44.538;18.668;2023-12-28T09:50:51;228.32;;;102.97;;
84523;SDS011;74765;44.538;18.668;2023-12-28T09:53:22;220.07;;;104.97;;
84523;SDS011;74765;44.538;18.668;2023-12-28T09:55:49;236.57;;;113.53;;
84523;SDS011;74765;44.538;18.668;2023-12-28T09:58:18;223.93;;;105.82;;
84523;SDS011;74765;44.538;18.668;2023-12-28T10:00:46;215.70;;;103.38;;
84523;SDS011;74765;44.538;18.668;2023-12-28T10:03:13;207.68;;;103.00;;
84523;SDS011;74765;44.538;18.668;2023-12-28T10:06:01;171.18;;;92.03;;
84523;SDS011;74765;44.538;18.668;2023-12-28T10:08:26;178.07;;;89.95;;
84523;SDS011;74765;44.538;18.668;2023-12-28T10:10:52;223.30;;;106.30;;
84523;SDS011;74765;44.538;18.668;2023-12-28T10:13:19;202.05;;;96.25;;
84523;SDS011;74765;44.538;18.668;2023-12-28T10:15:50;179.35;;;88.97;;
84523;SDS011;74765;44.538;18.668;2023-12-28T10:18:19;174.57;;;83.63;;
84523;SDS011;74765;44.538;18.668;2023-12-28T10:20:48;184.33;;;87.53;;
84523;SDS011;74765;44.538;18.668;2023-12-28T10:23:15;201.73;;;96.00;;
84523;SDS011;74765;44.538;18.668;2023-12-28T10:25:42;203.93;;;95.32;;
84523;SDS011;74765;44.538;18.668;2023-12-28T10:28:08;204.70;;;101.18;;
84523;SDS011;74765;44.538;18.668;2023-12-28T10:30:37;222.18;;;102.88;;
84523;SDS011;74765;44.538;18.668;2023-12-28T10:33:04;207.38;;;100.03;;
84523;SDS011;74765;44.538;18.668;2023-12-28T10:35:31;205.45;;;96.55;;
84523;SDS011;74765;44.538;18.668;2023-12-28T10:37:59;188.85;;;94.18;;
84523;SDS011;74765;44.538;18.668;2023-12-28T10:40:26;204.27;;;98.32;;
84523;SDS011;74765;44.538;18.668;2023-12-28T10:42:54;211.35;;;99.20;;
84523;SDS011;74765;44.538;18.668;2023-12-28T10:45:24;214.15;;;102.80;;
84523;SDS011;74765;44.538;18.668;2023-12-28T10:50:42;230.38;;;106.70;;
84523;SDS011;74765;44.538;18.668;2023-12-28T10:56:09;197.35;;;93.78;;
84523;SDS011;74765;44.538;18.668;2023-12-28T11:01:09;186.07;;;95.50;;
84523;SDS011;74765;44.538;18.668;2023-12-28T11:03:37;203.93;;;98.85;;
84523;SDS011;74765;44.538;18.668;2023-12-28T11:06:06;192.20;;;96.40;;
84523;SDS011;74765;44.538;18.668;2023-12-28T11:08:33;191.07;;;94.72;;
84523;SDS011;74765;44.538;18.668;2023-12-28T11:11:01;187.25;;;95.63;;
84523;SDS011;74765;44.538;18.668;2023-12-28T11:13:30;193.07;;;94.85;;
84523;SDS011;74765;44.538;18.668;2023-12-28T11:15:58;202.48;;;96.82;;
84523;SDS011;74765;44.538;18.668;2023-12-28T11:18:25;198.77;;;96.55;;
84523;SDS011;74765;44.538;18.668;2023-12-28T11:20:53;185.45;;;94.85;;
84523;SDS011;74765;44.538;18.668;2023-12-28T11:23:19;206.43;;;104.18;;
84523;SDS011;74765;44.538;18.668;2023-12-28T11:25:46;201.50;;;99.82;;
84523;SDS011;74765;44.538;18.668;2023-12-28T11:28:12;200.90;;;98.47;;
84523;SDS011;74765;44.538;18.668;2023-12-28T11:30:41;194.13;;;93.43;;
84523;SDS011;74765;44.538;18.668;2023-12-28T11:33:09;200.82;;;97.15;;
84523;SDS011;74765;44.538;18.668;2023-12-28T11:35:36;208.88;;;100.38;;
84523;SDS011;74765;44.538;18.668;2023-12-28T11:38:09;210.85;;;100.32;;
84523;SDS011;74765;44.538;18.668;2023-12-28T11:40:39;197.90;;;94.05;;
84523;SDS011;74765;44.538;18.668;2023-12-28T11:43:14;198.30;;;96.78;;
84523;SDS011;74765;44.538;18.668;2023-12-28T11:45:54;200.50;;;97.05;;
84523;SDS011;74765;44.538;18.668;2023-12-28T11:48:27;197.35;;;94.57;;
84523;SDS011;74765;44.538;18.668;2023-12-28T11:50:57;200.07;;;95.90;;
84523;SDS011;74765;44.538;18.668;2023-12-28T11:53:24;194.65;;;98.53;;
84523;SDS011;74765;44.538;18.668;2023-12-28T11:55:50;200.75;;;96.43;;
84523;SDS011;74765;44.538;18.668;2023-12-28T11:58:17;191.52;;;94.03;;
84523;SDS011;74765;44.538;18.668;2023-12-28T12:00:47;214.50;;;99.80;;
84523;SDS011;74765;44.538;18.668;2023-12-28T12:03:13;222.82;;;102.97;;
84523;SDS011;74765;44.538;18.668;2023-12-28T12:05:39;223.30;;;105.82;;
84523;SDS011;74765;44.538;18.668;2023-12-28T12:08:05;208.85;;;102.18;;
84523;SDS011;74765;44.538;18.668;2023-12-28T12:10:34;225.75;;;105.97;;
84523;SDS011;74765;44.538;18.668;2023-12-28T12:13:00;219.98;;;104.65;;
84523;SDS011;74765;44.538;18.668;2023-12-28T12:15:28;206.68;;;101.32;;
84523;SDS011;74765;44.538;18.668;2023-12-28T12:17:55;201.02;;;98.20;;
84523;SDS011;74765;44.538;18.668;2023-12-28T12:20:21;195.77;;;97.35;;
84523;SDS011;74765;44.538;18.668;2023-12-28T12:22:50;190.32;;;94.15;;
84523;SDS011;74765;44.538;18.668;2023-12-28T12:25:17;204.15;;;100.57;;
84523;SDS011;74765;44.538;18.668;2023-12-28T12:27:45;216.32;;;106.60;;
84523;SDS011;74765;44.538;18.668;2023-12-28T12:30:11;226.40;;;108.03;;
84523;SDS011;74765;44.538;18.668;2023-12-28T12:32:37;239.20;;;110.78;;
84523;SDS011;74765;44.538;18.668;2023-12-28T12:35:05;241.15;;;107.22;;
84523;SDS011;74765;44.538;18.668;2023-12-28T12:37:31;217.63;;;105.43;;
84523;SDS011;74765;44.538;18.668;2023-12-28T12:39:57;212.07;;;101.25;;
84523;SDS011;74765;44.538;18.668;2023-12-28T12:42:23;234.60;;;107.60;;
84523;SDS011;74765;44.538;18.668;2023-12-28T12:44:49;211.25;;;102.90;;
84523;SDS011;74765;44.538;18.668;2023-12-28T12:47:15;210.80;;;104.68;;
84523;SDS011;74765;44.538;18.668;2023-12-28T12:49:41;217.50;;;101.70;;
84523;SDS011;74765;44.538;18.668;2023-12-28T12:52:09;214.82;;;104.80;;
84523;SDS011;74765;44.538;18.668;2023-12-28T12:54:35;214.45;;;102.30;;
84523;SDS011;74765;44.538;18.668;2023-12-28T12:57:01;202.85;;;97.28;;
84523;SDS011;74765;44.538;18.668;2023-12-28T12:59:28;198.52;;;98.32;;
84523;SDS011;74765;44.538;18.668;2023-12-28T13:01:55;222.48;;;102.60;;
84523;SDS011;74765;44.538;18.668;2023-12-28T13:04:21;277.08;;;132.68;;
84523;SDS011;74765;44.538;18.668;2023-12-28T13:06:47;273.75;;;129.05;;
84523;SDS011;74765;44.538;18.668;2023-12-28T13:09:16;230.32;;;118.47;;
84523;SDS011;74765;44.538;18.668;2023-12-28T13:11:42;230.48;;;109.88;;
84523;SDS011;74765;44.538;18.668;2023-12-28T13:14:16;223.98;;;113.43;;
84523;SDS011;74765;44.538;18.668;2023-12-28T13:16:42;227.63;;;109.88;;
84523;SDS011;74765;44.538;18.668;2023-12-28T13:19:11;240.55;;;116.85;;
84523;SDS011;74765;44.538;18.668;2023-12-28T13:21:37;229.30;;;115.27;;
84523;SDS011;74765;44.538;18.668;2023-12-28T13:24:27;221.00;;;111.22;;
84523;SDS011;74765;44.538;18.668;2023-12-28T13:27:15;225.43;;;112.50;;
84523;SDS011;74765;44.538;18.668;2023-12-28T13:29:44;207.23;;;104.63;;
84523;SDS011;74765;44.538;18.668;2023-12-28T13:32:12;216.43;;;101.38;;
84523;SDS011;74765;44.538;18.668;2023-12-28T13:34:39;195.93;;;94.38;;
84523;SDS011;74765;44.538;18.668;2023-12-28T13:37:07;181.02;;;89.28;;
84523;SDS011;74765;44.538;18.668;2023-12-28T13:39:33;174.40;;;85.90;;
84523;SDS011;74765;44.538;18.668;2023-12-28T13:42:06;167.63;;;81.30;;
84523;SDS011;74765;44.538;18.668;2023-12-28T13:44:33;186.68;;;92.70;;
84523;SDS011;74765;44.538;18.668;2023-12-28T13:47:02;208.50;;;101.38;;
84523;SDS011;74765;44.538;18.668;2023-12-28T13:49:28;185.43;;;89.75;;
84523;SDS011;74765;44.538;18.668;2023-12-28T13:51:54;176.63;;;82.22;;
84523;SDS011;74765;44.538;18.668;2023-12-28T13:54:20;170.65;;;80.68;;
84523;SDS011;74765;44.538;18.668;2023-12-28T13:56:47;168.50;;;83.70;;
84523;SDS011;74765;44.538;18.668;2023-12-28T13:59:13;179.88;;;89.20;;
84523;SDS011;74765;44.538;18.668;2023-12-28T14:01:40;180.57;;;89.43;;